Aérodrome :
LOGIN :

S'inscrire | Disclaimer

   EN    FR    IT 

 










Légende :    VFR   VFR Marginal   IFR   IFR Intensif   IFR Très Intensif
Visi : 
Plafond : 
>= 8 km
>= 3000ft
5 à 8 km
1000 à 3000 ft
1500m à 5 km
500 à 1000 ft
800 à 1500m
200 à 500 ft
< 800m
< 200 ft
Symboles :   Orages  Brouillard  Fortes neiges  Fortes précipitations  Vent > 20 kt
SIGMETs :   Divers  Orages  Givrage  Turbulence  Onde Orograph.  Cendres Volcan.






- Altitude de l'aérodrome : 31 ft
- Code IATA : INV


EGPE - Inverness

DERNIER METAR :
  • 172220Z AUTO 24015KT 9999 -RA BKN021/// BKN029/// OVC048/// 04/01 Q1009

METARs EXPIRÉS :
  • 172150Z AUTO 25013KT 9999 FEW026/// BKN033/// BKN042/// 04/01 Q1008
  • 172120Z 25014KT 9999 SCT032 04/01 Q1008
  • 172050Z 22009KT 9999 SCT031 03/01 Q1007
  • 172020Z 22009KT 9999 FEW031 04/01 Q1007
  • 171950Z 22008KT 9999 FEW032 03/00 Q1006

TAF TAF EGPE
Valide du 17 à 21h jusqu'au 18 à 06h UTC


171956Z 1721/1806 22009KT 9999 SCT030
TEMPO 1721/1806 23015G25KT
ATIS : +44 1667 464 255



MET'MAP, la Météo Aéronautique d'un coup d'oeil ! - Copyright ORBIFLY Décembre 2007 - Disclaimer

ORBIFLY MET'MAP TEAM :

Programmation & Développement : Alexandra Zaïnal
Sur une idée originale de : Baudouin d'Aumeries
Assistance à la programmation : Marc-Olivier Méhu
Soutien technique & logistique : Manuel Goepfert

Contact : metmap@orbifly.com




SOURCES & CREDITS :

   NOAA